sensor_id;sensor_type;location;lat;lon;timestamp;P1;durP1;ratioP1;P2;durP2;ratioP2
11427;SDS011;5770;44.504;11.346;2024-03-02T00:01:21;6.93;;;6.30;;
11427;SDS011;5770;44.504;11.346;2024-03-02T00:03:48;7.15;;;6.45;;
11427;SDS011;5770;44.504;11.346;2024-03-02T00:06:18;7.97;;;7.25;;
11427;SDS011;5770;44.504;11.346;2024-03-02T00:08:47;7.47;;;6.78;;
11427;SDS011;5770;44.504;11.346;2024-03-02T00:11:15;7.53;;;6.82;;
11427;SDS011;5770;44.504;11.346;2024-03-02T00:13:43;8.57;;;7.72;;
11427;SDS011;5770;44.504;11.346;2024-03-02T00:16:11;9.32;;;8.32;;
11427;SDS011;5770;44.504;11.346;2024-03-02T00:18:40;8.48;;;7.68;;
11427;SDS011;5770;44.504;11.346;2024-03-02T00:21:07;9.55;;;8.63;;
11427;SDS011;5770;44.504;11.346;2024-03-02T00:23:36;8.82;;;8.02;;
11427;SDS011;5770;44.504;11.346;2024-03-02T00:26:03;9.57;;;8.73;;
11427;SDS011;5770;44.504;11.346;2024-03-02T00:28:36;8.80;;;8.00;;
11427;SDS011;5770;44.504;11.346;2024-03-02T00:31:04;10.48;;;8.82;;
11427;SDS011;5770;44.504;11.346;2024-03-02T00:33:32;8.93;;;8.13;;
11427;SDS011;5770;44.504;11.346;2024-03-02T00:36:02;9.35;;;8.57;;
11427;SDS011;5770;44.504;11.346;2024-03-02T00:38:29;10.27;;;9.15;;
11427;SDS011;5770;44.504;11.346;2024-03-02T00:40:57;9.43;;;8.48;;
11427;SDS011;5770;44.504;11.346;2024-03-02T00:43:44;11.40;;;9.20;;
11427;SDS011;5770;44.504;11.346;2024-03-02T00:46:19;10.90;;;8.73;;
11427;SDS011;5770;44.504;11.346;2024-03-02T00:48:55;10.77;;;8.93;;
11427;SDS011;5770;44.504;11.346;2024-03-02T00:51:26;9.85;;;8.75;;
11427;SDS011;5770;44.504;11.346;2024-03-02T00:53:54;10.23;;;9.10;;
11427;SDS011;5770;44.504;11.346;2024-03-02T00:56:22;10.35;;;9.45;;
11427;SDS011;5770;44.504;11.346;2024-03-02T00:58:50;10.13;;;9.23;;
11427;SDS011;5770;44.504;11.346;2024-03-02T01:01:17;10.82;;;9.65;;
11427;SDS011;5770;44.504;11.346;2024-03-02T01:03:44;10.20;;;9.10;;
11427;SDS011;5770;44.504;11.346;2024-03-02T01:06:12;10.93;;;8.93;;
11427;SDS011;5770;44.504;11.346;2024-03-02T01:08:40;11.18;;;9.32;;
11427;SDS011;5770;44.504;11.346;2024-03-02T01:11:07;10.15;;;9.15;;
11427;SDS011;5770;44.504;11.346;2024-03-02T01:13:34;9.35;;;8.43;;
11427;SDS011;5770;44.504;11.346;2024-03-02T01:16:02;11.98;;;9.77;;
11427;SDS011;5770;44.504;11.346;2024-03-02T01:18:29;10.60;;;9.50;;
11427;SDS011;5770;44.504;11.346;2024-03-02T01:20:57;10.38;;;9.15;;
11427;SDS011;5770;44.504;11.346;2024-03-02T01:23:24;9.93;;;9.02;;
11427;SDS011;5770;44.504;11.346;2024-03-02T01:25:53;9.60;;;8.73;;
11427;SDS011;5770;44.504;11.346;2024-03-02T01:28:20;11.15;;;9.38;;
11427;SDS011;5770;44.504;11.346;2024-03-02T01:30:47;9.52;;;8.65;;
11427;SDS011;5770;44.504;11.346;2024-03-02T01:33:16;11.02;;;9.10;;
11427;SDS011;5770;44.504;11.346;2024-03-02T01:35:44;9.82;;;8.63;;
11427;SDS011;5770;44.504;11.346;2024-03-02T01:38:11;11.02;;;8.55;;
11427;SDS011;5770;44.504;11.346;2024-03-02T01:40:38;9.23;;;8.43;;
11427;SDS011;5770;44.504;11.346;2024-03-02T01:43:06;11.07;;;10.07;;
11427;SDS011;5770;44.504;11.346;2024-03-02T01:45:33;10.57;;;9.52;;
11427;SDS011;5770;44.504;11.346;2024-03-02T01:48:02;10.98;;;9.13;;
11427;SDS011;5770;44.504;11.346;2024-03-02T01:50:31;10.57;;;9.75;;
11427;SDS011;5770;44.504;11.346;2024-03-02T01:52:59;11.45;;;10.30;;
11427;SDS011;5770;44.504;11.346;2024-03-02T01:55:26;10.48;;;9.50;;
11427;SDS011;5770;44.504;11.346;2024-03-02T01:57:55;11.30;;;9.73;;
11427;SDS011;5770;44.504;11.346;2024-03-02T02:00:24;12.32;;;9.80;;
11427;SDS011;5770;44.504;11.346;2024-03-02T02:02:51;10.73;;;9.65;;
11427;SDS011;5770;44.504;11.346;2024-03-02T02:05:19;10.73;;;9.82;;
11427;SDS011;5770;44.504;11.346;2024-03-02T02:07:46;11.35;;;10.15;;
11427;SDS011;5770;44.504;11.346;2024-03-02T02:10:13;10.93;;;9.80;;
11427;SDS011;5770;44.504;11.346;2024-03-02T02:12:40;11.10;;;9.90;;
11427;SDS011;5770;44.504;11.346;2024-03-02T02:15:25;11.18;;;9.95;;
11427;SDS011;5770;44.504;11.346;2024-03-02T02:17:52;10.35;;;9.45;;
11427;SDS011;5770;44.504;11.346;2024-03-02T02:20:19;10.13;;;9.10;;
11427;SDS011;5770;44.504;11.346;2024-03-02T02:22:58;10.48;;;9.48;;
11427;SDS011;5770;44.504;11.346;2024-03-02T02:25:26;12.40;;;9.82;;
11427;SDS011;5770;44.504;11.346;2024-03-02T02:27:53;11.23;;;9.00;;
11427;SDS011;5770;44.504;11.346;2024-03-02T02:30:22;10.88;;;9.77;;
11427;SDS011;5770;44.504;11.346;2024-03-02T02:32:50;10.48;;;9.32;;
11427;SDS011;5770;44.504;11.346;2024-03-02T02:35:17;12.50;;;10.55;;
11427;SDS011;5770;44.504;11.346;2024-03-02T02:37:44;10.60;;;9.60;;
11427;SDS011;5770;44.504;11.346;2024-03-02T02:40:14;10.50;;;9.50;;
11427;SDS011;5770;44.504;11.346;2024-03-02T02:42:41;9.95;;;8.77;;
11427;SDS011;5770;44.504;11.346;2024-03-02T02:45:08;13.43;;;10.02;;
11427;SDS011;5770;44.504;11.346;2024-03-02T02:47:36;10.50;;;9.55;;
11427;SDS011;5770;44.504;11.346;2024-03-02T02:50:03;10.52;;;9.43;;
11427;SDS011;5770;44.504;11.346;2024-03-02T02:52:31;10.73;;;9.73;;
11427;SDS011;5770;44.504;11.346;2024-03-02T02:55:00;10.57;;;9.52;;
11427;SDS011;5770;44.504;11.346;2024-03-02T02:57:30;10.68;;;9.68;;
11427;SDS011;5770;44.504;11.346;2024-03-02T03:00:00;9.82;;;9.00;;
11427;SDS011;5770;44.504;11.346;2024-03-02T03:02:30;12.77;;;9.50;;
11427;SDS011;5770;44.504;11.346;2024-03-02T03:04:57;11.90;;;10.70;;
11427;SDS011;5770;44.504;11.346;2024-03-02T03:07:25;11.25;;;9.88;;
11427;SDS011;5770;44.504;11.346;2024-03-02T03:09:52;10.98;;;9.93;;
11427;SDS011;5770;44.504;11.346;2024-03-02T03:12:19;11.98;;;10.88;;
11427;SDS011;5770;44.504;11.346;2024-03-02T03:14:47;14.25;;;11.13;;
11427;SDS011;5770;44.504;11.346;2024-03-02T03:17:15;11.45;;;10.45;;
11427;SDS011;5770;44.504;11.346;2024-03-02T03:19:43;11.70;;;10.60;;
11427;SDS011;5770;44.504;11.346;2024-03-02T03:22:10;12.02;;;10.88;;
11427;SDS011;5770;44.504;11.346;2024-03-02T03:24:38;12.23;;;11.07;;
11427;SDS011;5770;44.504;11.346;2024-03-02T03:27:05;11.90;;;10.73;;
11427;SDS011;5770;44.504;11.346;2024-03-02T03:29:32;12.77;;;10.32;;
11427;SDS011;5770;44.504;11.346;2024-03-02T03:32:01;10.90;;;9.90;;
11427;SDS011;5770;44.504;11.346;2024-03-02T03:34:28;11.68;;;10.48;;
11427;SDS011;5770;44.504;11.346;2024-03-02T03:36:55;12.45;;;11.18;;
11427;SDS011;5770;44.504;11.346;2024-03-02T03:39:25;11.68;;;10.55;;
11427;SDS011;5770;44.504;11.346;2024-03-02T03:41:52;11.88;;;10.68;;
11427;SDS011;5770;44.504;11.346;2024-03-02T03:44:19;11.85;;;10.73;;
11427;SDS011;5770;44.504;11.346;2024-03-02T03:46:46;11.68;;;10.57;;
11427;SDS011;5770;44.504;11.346;2024-03-02T03:49:15;11.90;;;10.25;;
11427;SDS011;5770;44.504;11.346;2024-03-02T03:51:42;10.90;;;9.95;;
11427;SDS011;5770;44.504;11.346;2024-03-02T03:54:09;11.40;;;10.32;;
11427;SDS011;5770;44.504;11.346;2024-03-02T03:56:37;11.65;;;10.35;;
11427;SDS011;5770;44.504;11.346;2024-03-02T03:59:04;11.40;;;10.23;;
11427;SDS011;5770;44.504;11.346;2024-03-02T04:01:31;11.27;;;10.10;;
11427;SDS011;5770;44.504;11.346;2024-03-02T04:03:58;10.27;;;9.38;;
11427;SDS011;5770;44.504;11.346;2024-03-02T04:06:28;11.27;;;9.57;;
11427;SDS011;5770;44.504;11.346;2024-03-02T04:08:55;11.90;;;9.65;;
11427;SDS011;5770;44.504;11.346;2024-03-02T04:11:22;10.73;;;9.73;;
11427;SDS011;5770;44.504;11.346;2024-03-02T04:13:49;11.05;;;10.05;;
11427;SDS011;5770;44.504;11.346;2024-03-02T04:16:16;11.23;;;10.23;;
11427;SDS011;5770;44.504;11.346;2024-03-02T04:18:44;11.10;;;10.10;;
11427;SDS011;5770;44.504;11.346;2024-03-02T04:21:10;11.13;;;10.13;;
11427;SDS011;5770;44.504;11.346;2024-03-02T04:23:39;12.32;;;10.13;;
11427;SDS011;5770;44.504;11.346;2024-03-02T04:26:06;10.88;;;9.82;;
11427;SDS011;5770;44.504;11.346;2024-03-02T04:28:33;11.57;;;10.57;;
11427;SDS011;5770;44.504;11.346;2024-03-02T04:31:00;12.77;;;10.35;;
11427;SDS011;5770;44.504;11.346;2024-03-02T04:33:27;11.35;;;10.35;;
11427;SDS011;5770;44.504;11.346;2024-03-02T04:35:54;11.23;;;10.13;;
11427;SDS011;5770;44.504;11.346;2024-03-02T04:38:22;11.57;;;10.27;;
11427;SDS011;5770;44.504;11.346;2024-03-02T04:40:51;12.68;;;10.43;;
11427;SDS011;5770;44.504;11.346;2024-03-02T04:43:17;12.82;;;10.77;;
11427;SDS011;5770;44.504;11.346;2024-03-02T04:45:45;12.30;;;10.15;;
11427;SDS011;5770;44.504;11.346;2024-03-02T04:48:11;11.55;;;10.55;;
11427;SDS011;5770;44.504;11.346;2024-03-02T04:50:39;11.82;;;10.63;;
11427;SDS011;5770;44.504;11.346;2024-03-02T04:53:06;12.02;;;10.77;;
11427;SDS011;5770;44.504;11.346;2024-03-02T04:55:33;11.85;;;10.75;;
11427;SDS011;5770;44.504;11.346;2024-03-02T04:58:36;11.35;;;10.25;;
11427;SDS011;5770;44.504;11.346;2024-03-02T05:01:03;12.48;;;11.27;;
11427;SDS011;5770;44.504;11.346;2024-03-02T05:03:31;11.93;;;10.70;;
11427;SDS011;5770;44.504;11.346;2024-03-02T05:05:59;12.25;;;10.93;;
11427;SDS011;5770;44.504;11.346;2024-03-02T05:08:26;11.48;;;10.38;;
11427;SDS011;5770;44.504;11.346;2024-03-02T05:10:53;11.80;;;10.70;;
11427;SDS011;5770;44.504;11.346;2024-03-02T05:13:42;11.57;;;10.38;;
11427;SDS011;5770;44.504;11.346;2024-03-02T05:16:09;11.15;;;10.13;;
11427;SDS011;5770;44.504;11.346;2024-03-02T05:18:37;11.13;;;9.73;;
11427;SDS011;5770;44.504;11.346;2024-03-02T05:21:04;11.05;;;9.95;;
11427;SDS011;5770;44.504;11.346;2024-03-02T05:23:31;10.60;;;9.50;;
11427;SDS011;5770;44.504;11.346;2024-03-02T05:25:58;11.50;;;9.82;;
11427;SDS011;5770;44.504;11.346;2024-03-02T05:28:25;10.65;;;9.65;;
11427;SDS011;5770;44.504;11.346;2024-03-02T05:30:53;10.38;;;9.48;;
11427;SDS011;5770;44.504;11.346;2024-03-02T05:33:21;10.90;;;9.80;;
11427;SDS011;5770;44.504;11.346;2024-03-02T05:35:48;10.60;;;9.70;;
11427;SDS011;5770;44.504;11.346;2024-03-02T05:38:16;10.38;;;9.48;;
11427;SDS011;5770;44.504;11.346;2024-03-02T05:40:43;10.65;;;9.75;;
11427;SDS011;5770;44.504;11.346;2024-03-02T05:43:10;11.43;;;9.32;;
11427;SDS011;5770;44.504;11.346;2024-03-02T05:45:37;9.90;;;9.00;;
11427;SDS011;5770;44.504;11.346;2024-03-02T05:48:06;9.43;;;8.63;;
11427;SDS011;5770;44.504;11.346;2024-03-02T05:50:34;10.48;;;9.48;;
11427;SDS011;5770;44.504;11.346;2024-03-02T05:53:01;10.18;;;9.18;;
11427;SDS011;5770;44.504;11.346;2024-03-02T05:55:28;10.07;;;9.23;;
11427;SDS011;5770;44.504;11.346;2024-03-02T05:57:56;11.68;;;9.48;;
11427;SDS011;5770;44.504;11.346;2024-03-02T06:00:40;10.68;;;9.60;;
11427;SDS011;5770;44.504;11.346;2024-03-02T06:03:09;11.13;;;10.13;;
11427;SDS011;5770;44.504;11.346;2024-03-02T06:05:35;10.52;;;9.52;;
11427;SDS011;5770;44.504;11.346;2024-03-02T06:08:03;9.80;;;8.90;;
11427;SDS011;5770;44.504;11.346;2024-03-02T06:10:30;11.10;;;10.20;;
11427;SDS011;5770;44.504;11.346;2024-03-02T06:12:57;10.35;;;9.40;;
11427;SDS011;5770;44.504;11.346;2024-03-02T06:15:24;12.68;;;11.52;;
11427;SDS011;5770;44.504;11.346;2024-03-02T06:17:51;19.05;;;15.73;;
11427;SDS011;5770;44.504;11.346;2024-03-02T06:20:20;18.30;;;15.57;;
11427;SDS011;5770;44.504;11.346;2024-03-02T06:22:47;13.90;;;12.57;;
11427;SDS011;5770;44.504;11.346;2024-03-02T06:25:14;14.70;;;13.20;;
11427;SDS011;5770;44.504;11.346;2024-03-02T06:27:41;13.50;;;12.25;;
11427;SDS011;5770;44.504;11.346;2024-03-02T06:30:08;12.13;;;10.90;;
11427;SDS011;5770;44.504;11.346;2024-03-02T06:32:36;12.57;;;11.38;;
11427;SDS011;5770;44.504;11.346;2024-03-02T06:35:03;12.57;;;11.25;;
11427;SDS011;5770;44.504;11.346;2024-03-02T06:37:35;12.32;;;11.13;;
11427;SDS011;5770;44.504;11.346;2024-03-02T06:40:02;11.75;;;10.65;;
11427;SDS011;5770;44.504;11.346;2024-03-02T06:42:32;11.70;;;10.70;;
11427;SDS011;5770;44.504;11.346;2024-03-02T06:44:59;11.52;;;10.50;;
11427;SDS011;5770;44.504;11.346;2024-03-02T06:47:26;11.40;;;10.20;;
11427;SDS011;5770;44.504;11.346;2024-03-02T06:49:53;12.23;;;11.05;;
11427;SDS011;5770;44.504;11.346;2024-03-02T06:52:20;12.15;;;10.65;;
11427;SDS011;5770;44.504;11.346;2024-03-02T06:54:49;11.75;;;10.65;;
11427;SDS011;5770;44.504;11.346;2024-03-02T06:57:16;11.80;;;10.73;;
11427;SDS011;5770;44.504;11.346;2024-03-02T06:59:44;11.32;;;10.32;;
11427;SDS011;5770;44.504;11.346;2024-03-02T07:02:12;11.32;;;10.43;;
11427;SDS011;5770;44.504;11.346;2024-03-02T07:04:39;10.50;;;9.60;;
11427;SDS011;5770;44.504;11.346;2024-03-02T07:07:06;10.52;;;9.52;;
11427;SDS011;5770;44.504;11.346;2024-03-02T07:09:33;11.15;;;9.63;;
11427;SDS011;5770;44.504;11.346;2024-03-02T07:12:02;11.07;;;9.98;;
11427;SDS011;5770;44.504;11.346;2024-03-02T07:14:29;11.10;;;10.00;;
11427;SDS011;5770;44.504;11.346;2024-03-02T07:17:10;10.40;;;9.48;;
11427;SDS011;5770;44.504;11.346;2024-03-02T07:19:37;11.07;;;9.98;;
11427;SDS011;5770;44.504;11.346;2024-03-02T07:22:05;11.05;;;9.95;;
11427;SDS011;5770;44.504;11.346;2024-03-02T07:24:39;11.43;;;10.32;;
11427;SDS011;5770;44.504;11.346;2024-03-02T07:27:08;10.60;;;9.60;;
11427;SDS011;5770;44.504;11.346;2024-03-02T07:29:37;10.80;;;9.80;;
11427;SDS011;5770;44.504;11.346;2024-03-02T07:32:05;10.23;;;9.23;;
11427;SDS011;5770;44.504;11.346;2024-03-02T07:34:33;10.30;;;9.40;;
11427;SDS011;5770;44.504;11.346;2024-03-02T07:37:02;10.15;;;9.15;;
11427;SDS011;5770;44.504;11.346;2024-03-02T07:39:29;10.35;;;9.45;;
11427;SDS011;5770;44.504;11.346;2024-03-02T07:41:57;10.30;;;9.40;;
11427;SDS011;5770;44.504;11.346;2024-03-02T07:44:25;10.27;;;9.38;;
11427;SDS011;5770;44.504;11.346;2024-03-02T07:46:52;11.18;;;9.90;;
11427;SDS011;5770;44.504;11.346;2024-03-02T07:49:20;11.13;;;10.02;;
11427;SDS011;5770;44.504;11.346;2024-03-02T07:51:47;10.90;;;9.90;;
11427;SDS011;5770;44.504;11.346;2024-03-02T07:54:14;11.60;;;10.40;;
11427;SDS011;5770;44.504;11.346;2024-03-02T07:56:41;9.63;;;8.80;;
11427;SDS011;5770;44.504;11.346;2024-03-02T07:59:08;10.50;;;9.57;;
11427;SDS011;5770;44.504;11.346;2024-03-02T08:01:36;10.45;;;9.52;;
11427;SDS011;5770;44.504;11.346;2024-03-02T08:04:03;10.70;;;9.75;;
11427;SDS011;5770;44.504;11.346;2024-03-02T08:06:30;10.48;;;9.48;;
11427;SDS011;5770;44.504;11.346;2024-03-02T08:08:58;10.77;;;9.77;;
11427;SDS011;5770;44.504;11.346;2024-03-02T08:11:29;10.70;;;9.80;;
11427;SDS011;5770;44.504;11.346;2024-03-02T08:13:57;10.70;;;9.70;;
11427;SDS011;5770;44.504;11.346;2024-03-02T08:16:24;12.13;;;10.95;;
11427;SDS011;5770;44.504;11.346;2024-03-02T08:18:52;12.15;;;11.15;;
11427;SDS011;5770;44.504;11.346;2024-03-02T08:21:22;12.23;;;11.13;;
11427;SDS011;5770;44.504;11.346;2024-03-02T08:23:50;13.40;;;11.75;;
11427;SDS011;5770;44.504;11.346;2024-03-02T08:26:17;12.05;;;10.82;;
11427;SDS011;5770;44.504;11.346;2024-03-02T08:28:43;12.25;;;11.10;;
11427;SDS011;5770;44.504;11.346;2024-03-02T08:31:11;12.18;;;11.07;;
11427;SDS011;5770;44.504;11.346;2024-03-02T08:33:38;12.45;;;11.27;;
11427;SDS011;5770;44.504;11.346;2024-03-02T08:36:07;11.30;;;10.20;;
11427;SDS011;5770;44.504;11.346;2024-03-02T08:38:35;11.13;;;10.13;;
11427;SDS011;5770;44.504;11.346;2024-03-02T08:41:02;13.45;;;12.13;;
11427;SDS011;5770;44.504;11.346;2024-03-02T08:43:29;11.90;;;10.82;;
11427;SDS011;5770;44.504;11.346;2024-03-02T08:45:56;12.02;;;10.45;;
11427;SDS011;5770;44.504;11.346;2024-03-02T08:48:23;10.63;;;8.93;;
11427;SDS011;5770;44.504;11.346;2024-03-02T08:50:51;9.60;;;8.70;;
11427;SDS011;5770;44.504;11.346;2024-03-02T08:53:20;10.13;;;9.23;;
11427;SDS011;5770;44.504;11.346;2024-03-02T08:55:47;12.05;;;9.93;;
11427;SDS011;5770;44.504;11.346;2024-03-02T08:58:14;10.00;;;9.05;;
11427;SDS011;5770;44.504;11.346;2024-03-02T09:00:41;9.10;;;8.30;;
11427;SDS011;5770;44.504;11.346;2024-03-02T09:03:09;8.77;;;8.05;;
11427;SDS011;5770;44.504;11.346;2024-03-02T09:05:36;10.65;;;8.25;;
11427;SDS011;5770;44.504;11.346;2024-03-02T09:08:03;8.70;;;7.75;;
11427;SDS011;5770;44.504;11.346;2024-03-02T09:10:39;8.77;;;7.97;;
11427;SDS011;5770;44.504;11.346;2024-03-02T09:13:09;10.55;;;9.55;;
11427;SDS011;5770;44.504;11.346;2024-03-02T09:15:36;8.88;;;8.07;;
11427;SDS011;5770;44.504;11.346;2024-03-02T09:18:04;9.32;;;8.48;;
11427;SDS011;5770;44.504;11.346;2024-03-02T09:20:35;8.95;;;8.23;;
11427;SDS011;5770;44.504;11.346;2024-03-02T09:23:02;9.07;;;8.27;;
11427;SDS011;5770;44.504;11.346;2024-03-02T09:25:29;9.32;;;8.52;;
11427;SDS011;5770;44.504;11.346;2024-03-02T09:27:57;9.13;;;8.43;;
11427;SDS011;5770;44.504;11.346;2024-03-02T09:30:24;8.90;;;8.10;;
11427;SDS011;5770;44.504;11.346;2024-03-02T09:32:51;9.50;;;8.48;;
11427;SDS011;5770;44.504;11.346;2024-03-02T09:35:19;9.63;;;8.48;;
11427;SDS011;5770;44.504;11.346;2024-03-02T09:37:46;9.80;;;8.35;;
11427;SDS011;5770;44.504;11.346;2024-03-02T09:40:13;9.32;;;8.52;;
11427;SDS011;5770;44.504;11.346;2024-03-02T09:42:41;8.93;;;8.13;;
11427;SDS011;5770;44.504;11.346;2024-03-02T09:45:10;8.57;;;7.78;;
11427;SDS011;5770;44.504;11.346;2024-03-02T09:47:37;9.18;;;8.38;;
11427;SDS011;5770;44.504;11.346;2024-03-02T09:50:05;8.50;;;7.70;;
11427;SDS011;5770;44.504;11.346;2024-03-02T09:52:33;8.80;;;8.00;;
11427;SDS011;5770;44.504;11.346;2024-03-02T09:55:01;9.07;;;8.27;;
11427;SDS011;5770;44.504;11.346;2024-03-02T09:57:30;8.73;;;7.82;;
11427;SDS011;5770;44.504;11.346;2024-03-02T09:59:57;9.23;;;8.32;;
11427;SDS011;5770;44.504;11.346;2024-03-02T10:02:26;8.00;;;7.38;;
11427;SDS011;5770;44.504;11.346;2024-03-02T10:04:53;8.75;;;7.97;;
11427;SDS011;5770;44.504;11.346;2024-03-02T10:07:20;8.23;;;7.45;;
11427;SDS011;5770;44.504;11.346;2024-03-02T10:09:48;8.00;;;7.30;;
11427;SDS011;5770;44.504;11.346;2024-03-02T10:12:17;7.43;;;6.82;;
11427;SDS011;5770;44.504;11.346;2024-03-02T10:14:44;7.72;;;7.05;;
11427;SDS011;5770;44.504;11.346;2024-03-02T10:17:13;7.85;;;6.75;;
11427;SDS011;5770;44.504;11.346;2024-03-02T10:19:44;7.63;;;6.93;;
11427;SDS011;5770;44.504;11.346;2024-03-02T10:22:12;7.97;;;7.38;;
11427;SDS011;5770;44.504;11.346;2024-03-02T10:24:40;7.45;;;6.85;;
11427;SDS011;5770;44.504;11.346;2024-03-02T10:27:09;7.65;;;6.95;;
11427;SDS011;5770;44.504;11.346;2024-03-02T10:29:40;6.70;;;6.05;;
11427;SDS011;5770;44.504;11.346;2024-03-02T10:32:08;6.80;;;6.30;;
11427;SDS011;5770;44.504;11.346;2024-03-02T10:34:36;6.82;;;6.22;;
11427;SDS011;5770;44.504;11.346;2024-03-02T10:37:06;6.28;;;5.68;;
11427;SDS011;5770;44.504;11.346;2024-03-02T10:39:34;6.88;;;6.28;;
11427;SDS011;5770;44.504;11.346;2024-03-02T10:42:05;7.13;;;6.45;;
11427;SDS011;5770;44.504;11.346;2024-03-02T10:44:33;7.95;;;7.20;;
11427;SDS011;5770;44.504;11.346;2024-03-02T10:47:00;8.02;;;7.22;;
11427;SDS011;5770;44.504;11.346;2024-03-02T10:49:31;7.30;;;6.70;;
11427;SDS011;5770;44.504;11.346;2024-03-02T10:51:59;7.82;;;7.03;;
11427;SDS011;5770;44.504;11.346;2024-03-02T10:54:28;7.40;;;6.80;;
11427;SDS011;5770;44.504;11.346;2024-03-02T10:57:01;7.53;;;6.88;;
11427;SDS011;5770;44.504;11.346;2024-03-02T10:59:32;6.78;;;6.18;;
11427;SDS011;5770;44.504;11.346;2024-03-02T11:02:00;7.38;;;6.78;;
11427;SDS011;5770;44.504;11.346;2024-03-02T11:04:29;6.20;;;5.18;;
11427;SDS011;5770;44.504;11.346;2024-03-02T11:06:59;6.75;;;6.25;;
11427;SDS011;5770;44.504;11.346;2024-03-02T11:09:31;6.72;;;6.05;;
11427;SDS011;5770;44.504;11.346;2024-03-02T11:12:00;5.28;;;4.88;;
11427;SDS011;5770;44.504;11.346;2024-03-02T11:14:32;5.25;;;4.85;;
11427;SDS011;5770;44.504;11.346;2024-03-02T11:17:01;4.38;;;4.03;;
11427;SDS011;5770;44.504;11.346;2024-03-02T11:19:30;4.45;;;3.75;;
11427;SDS011;5770;44.504;11.346;2024-03-02T11:21:59;6.28;;;4.18;;
11427;SDS011;5770;44.504;11.346;2024-03-02T11:24:32;3.80;;;3.50;;
11427;SDS011;5770;44.504;11.346;2024-03-02T11:26:58;3.90;;;3.60;;
11427;SDS011;5770;44.504;11.346;2024-03-02T11:29:42;4.60;;;3.10;;
11427;SDS011;5770;44.504;11.346;2024-03-02T11:32:13;4.65;;;3.50;;
11427;SDS011;5770;44.504;11.346;2024-03-02T11:34:41;2.72;;;2.53;;
11427;SDS011;5770;44.504;11.346;2024-03-02T11:37:12;2.90;;;2.70;;
11427;SDS011;5770;44.504;11.346;2024-03-02T11:39:41;3.25;;;2.58;;
11427;SDS011;5770;44.504;11.346;2024-03-02T11:42:09;3.85;;;2.70;;
11427;SDS011;5770;44.504;11.346;2024-03-02T11:44:39;4.18;;;3.10;;
11427;SDS011;5770;44.504;11.346;2024-03-02T11:47:08;3.13;;;2.83;;
11427;SDS011;5770;44.504;11.346;2024-03-02T11:49:39;3.05;;;2.70;;
11427;SDS011;5770;44.504;11.346;2024-03-02T11:52:07;3.15;;;2.85;;
11427;SDS011;5770;44.504;11.346;2024-03-02T11:54:36;2.85;;;2.53;;
11427;SDS011;5770;44.504;11.346;2024-03-02T11:57:07;3.58;;;3.28;;
11427;SDS011;5770;44.504;11.346;2024-03-02T11:59:34;2.40;;;2.20;;
11427;SDS011;5770;44.504;11.346;2024-03-02T12:02:01;2.78;;;2.53;;
11427;SDS011;5770;44.504;11.346;2024-03-02T12:04:29;2.83;;;2.50;;
11427;SDS011;5770;44.504;11.346;2024-03-02T12:06:58;4.85;;;2.50;;
11427;SDS011;5770;44.504;11.346;2024-03-02T12:09:26;3.20;;;2.58;;
11427;SDS011;5770;44.504;11.346;2024-03-02T12:12:03;2.90;;;2.42;;
11427;SDS011;5770;44.504;11.346;2024-03-02T12:14:33;2.10;;;2.00;;
11427;SDS011;5770;44.504;11.346;2024-03-02T12:17:01;2.50;;;2.20;;
11427;SDS011;5770;44.504;11.346;2024-03-02T12:19:29;2.00;;;1.90;;
11427;SDS011;5770;44.504;11.346;2024-03-02T12:21:56;2.75;;;2.20;;
11427;SDS011;5770;44.504;11.346;2024-03-02T12:24:24;2.22;;;1.90;;
11427;SDS011;5770;44.504;11.346;2024-03-02T12:26:52;2.28;;;2.00;;
11427;SDS011;5770;44.504;11.346;2024-03-02T12:29:20;2.20;;;2.00;;
11427;SDS011;5770;44.504;11.346;2024-03-02T12:31:49;2.20;;;2.00;;
11427;SDS011;5770;44.504;11.346;2024-03-02T12:34:17;1.90;;;1.80;;
11427;SDS011;5770;44.504;11.346;2024-03-02T12:36:47;1.80;;;1.70;;
11427;SDS011;5770;44.504;11.346;2024-03-02T12:39:29;2.05;;;1.77;;
11427;SDS011;5770;44.504;11.346;2024-03-02T12:41:58;2.55;;;1.90;;
11427;SDS011;5770;44.504;11.346;2024-03-02T12:44:25;3.28;;;1.92;;
11427;SDS011;5770;44.504;11.346;2024-03-02T12:46:53;2.03;;;1.73;;
11427;SDS011;5770;44.504;11.346;2024-03-02T12:49:21;2.20;;;2.00;;
11427;SDS011;5770;44.504;11.346;2024-03-02T12:51:48;2.58;;;1.70;;
11427;SDS011;5770;44.504;11.346;2024-03-02T12:54:22;2.08;;;1.88;;
11427;SDS011;5770;44.504;11.346;2024-03-02T12:56:50;1.88;;;1.60;;
11427;SDS011;5770;44.504;11.346;2024-03-02T12:59:19;1.92;;;1.77;;
11427;SDS011;5770;44.504;11.346;2024-03-02T13:01:51;2.20;;;1.90;;
11427;SDS011;5770;44.504;11.346;2024-03-02T13:04:22;7.68;;;3.10;;
11427;SDS011;5770;44.504;11.346;2024-03-02T13:06:50;2.63;;;2.42;;
11427;SDS011;5770;44.504;11.346;2024-03-02T13:09:18;2.55;;;2.08;;
11427;SDS011;5770;44.504;11.346;2024-03-02T13:11:45;1.83;;;1.73;;
11427;SDS011;5770;44.504;11.346;2024-03-02T13:14:13;2.13;;;1.90;;
11427;SDS011;5770;44.504;11.346;2024-03-02T13:16:40;2.00;;;1.90;;
11427;SDS011;5770;44.504;11.346;2024-03-02T13:19:07;2.05;;;1.95;;
11427;SDS011;5770;44.504;11.346;2024-03-02T13:21:36;2.38;;;2.00;;
11427;SDS011;5770;44.504;11.346;2024-03-02T13:24:03;2.30;;;1.80;;
11427;SDS011;5770;44.504;11.346;2024-03-02T13:26:30;1.60;;;1.50;;
11427;SDS011;5770;44.504;11.346;2024-03-02T13:28:57;1.60;;;1.50;;
11427;SDS011;5770;44.504;11.346;2024-03-02T13:31:24;1.70;;;1.60;;
11427;SDS011;5770;44.504;11.346;2024-03-02T13:33:51;1.80;;;1.70;;
11427;SDS011;5770;44.504;11.346;2024-03-02T13:36:18;1.80;;;1.70;;
11427;SDS011;5770;44.504;11.346;2024-03-02T13:38:46;1.98;;;1.70;;
11427;SDS011;5770;44.504;11.346;2024-03-02T13:41:13;1.55;;;1.33;;
11427;SDS011;5770;44.504;11.346;2024-03-02T13:43:40;1.65;;;1.30;;
11427;SDS011;5770;44.504;11.346;2024-03-02T13:46:10;1.70;;;1.60;;
11427;SDS011;5770;44.504;11.346;2024-03-02T13:48:36;1.83;;;1.73;;
11427;SDS011;5770;44.504;11.346;2024-03-02T13:51:04;2.08;;;1.35;;
11427;SDS011;5770;44.504;11.346;2024-03-02T13:53:31;1.92;;;1.50;;
11427;SDS011;5770;44.504;11.346;2024-03-02T13:55:59;1.45;;;1.30;;
11427;SDS011;5770;44.504;11.346;2024-03-02T13:58:26;3.03;;;1.50;;
11427;SDS011;5770;44.504;11.346;2024-03-02T14:00:54;1.50;;;1.40;;
11427;SDS011;5770;44.504;11.346;2024-03-02T14:03:22;1.70;;;1.60;;
11427;SDS011;5770;44.504;11.346;2024-03-02T14:05:52;2.08;;;1.80;;
11427;SDS011;5770;44.504;11.346;2024-03-02T14:08:20;2.22;;;2.00;;
11427;SDS011;5770;44.504;11.346;2024-03-02T14:10:48;2.95;;;2.28;;
11427;SDS011;5770;44.504;11.346;2024-03-02T14:13:16;2.60;;;2.50;;
11427;SDS011;5770;44.504;11.346;2024-03-02T14:15:43;3.22;;;3.00;;
11427;SDS011;5770;44.504;11.346;2024-03-02T14:18:11;3.38;;;2.90;;
11427;SDS011;5770;44.504;11.346;2024-03-02T14:20:38;3.70;;;3.40;;
11427;SDS011;5770;44.504;11.346;2024-03-02T14:23:07;3.63;;;3.33;;
11427;SDS011;5770;44.504;11.346;2024-03-02T14:25:35;3.35;;;2.85;;
11427;SDS011;5770;44.504;11.346;2024-03-02T14:28:02;4.18;;;3.72;;
11427;SDS011;5770;44.504;11.346;2024-03-02T14:30:30;3.75;;;3.45;;
11427;SDS011;5770;44.504;11.346;2024-03-02T14:32:59;4.18;;;3.78;;
11427;SDS011;5770;44.504;11.346;2024-03-02T14:35:26;3.78;;;3.47;;
11427;SDS011;5770;44.504;11.346;2024-03-02T14:37:54;4.00;;;3.70;;
11427;SDS011;5770;44.504;11.346;2024-03-02T14:40:22;3.90;;;3.70;;
11427;SDS011;5770;44.504;11.346;2024-03-02T14:42:51;4.13;;;3.83;;
11427;SDS011;5770;44.504;11.346;2024-03-02T14:45:19;3.80;;;3.50;;